Hovedside
METAR-TAF:

METAR-TAF

Lufthavner :

Halmstad, Sverige

Halmstad lufthavn

breddegrad: 56-41N, lengdegrad: 012-50E, høyde over havet: 30 m

Gjeldene værobservasjon

Denne rapporten ble laget for 29 minutter siden, klokken 20:20 UTC
Flau vind
Temperatur 3°C
Luftfuktighet 100%
Trykk 1024 hPa
Sikt: 0050 m
tåke

METAR: ESMT 262020Z AUTO 00000KT 0050 R01/0400N R19/0275N FG VV000 03/03 Q1024

Tid: 22:49 (20:49 UTC)

Varsel

Denne rapporten ble laget for 2 timer og 25 minutter siden, klokken 18:24 UTC
Varsel gyldig fra 26. klokken 18 UTC til 26. klokken 20 UTC
Vind 8 kt fra Vest-sørvest
Sikt: 0150 m
Brutte skyer i en høyde av 100 ft
tåke
Midlertidig
fra 26. klokken 18 UTC til 26. klokken 20 UTC
Sikt: 4000 m
Brutte skyer i en høyde av 500 ft
dis

TAF: ESMT 261824Z 2618/2620 25008KT 0150 FG BKN001 TEMPO 2618/2620 4000 BR BKN005

Værobservasjoner og værvarsel for over 4000 flyplasser (METAR- og TAF-rapporter).

Tilgjengelige stasjoner er representert av de røde og gule prikkene på kartet.

Hold musepekeren over prikken for å se navnet på stasjonen.

Klikk så for å se værobservasjoner og -varsler.

For å forandre kartet kan du klikke på den grønne knappen med svart kryss for å zoome inn, på den grønne knappen med strek for å zoome ut, eller på de grønne pilene for å se tilstøtende kart.


METAR-TAF: